Time;durP1;ratioP1;P1;durP2;ratioP2;P2;SDS_P1;SDS_P2;PMS_P1;PMS_P2;Temp;Humidity;BMP_temperature;BMP_pressure;BME280_temperature;BME280_humidity;BME280_pressure;Samples;Min_cycle;Max_cycle;Signal;HPM_P1;HPM_P2
2023/02/28 00:00:15;;;;;;;;;;;;;;;-1.82;61.42;98833.50;5099265;28;19969;-58
2023/02/28 00:02:44;;;;;;;;;;;;;;;-1.94;61.77;98829.84;5111328;28;19958;-57
2023/02/28 00:05:14;;;;;;;;;;;;;;;-1.80;61.44;98823.47;5101944;28;19946;-57
2023/02/28 00:07:42;;;;;;;;;;;;;;;-1.86;61.80;98833.13;5107779;28;19935;-57
2023/02/28 00:10:11;;;;;;;;;;;;;;;-1.95;62.51;98830.88;5095515;28;19924;-59
2023/02/28 00:12:40;;;;;;;;;;;;;;;-1.88;61.62;98831.66;5087450;28;19930;-57
2023/02/28 00:15:09;;;;;;;;;;;;;;;-1.90;62.07;98828.41;5099374;28;19924;-58
2023/02/28 00:17:37;;;;;;;;;;;;;;;-1.96;62.26;98823.91;5096791;28;19927;-57
2023/02/28 00:20:11;;;;;;;;;;;;;;;-1.97;62.28;98828.44;5105924;28;19928;-57
2023/02/28 00:22:40;;;;;;;;;;;;;;;-1.88;62.19;98821.00;5110444;28;20423;-58
2023/02/28 00:25:08;;;;;;;;;;;;;;;-1.92;62.04;98819.78;5112210;28;19931;-58
2023/02/28 00:27:37;;;;;;;;;;;;;;;-1.88;62.39;98823.69;5105749;28;19947;-58
2023/02/28 00:30:06;;;;;;;;;;;;;;;-2.03;62.63;98823.09;5090775;28;20015;-58
2023/02/28 00:32:35;;;;;;;;;;;;;;;-2.05;62.84;98825.97;5095315;28;19924;-57
2023/02/28 00:35:03;;;;;;;;;;;;;;;-2.04;62.80;98821.47;5102534;28;19930;-58
2023/02/28 00:37:33;;;;;;;;;;;;;;;-1.91;62.19;98824.13;5105032;28;19928;-57
2023/02/28 00:40:01;;;;;;;;;;;;;;;-1.95;62.59;98825.56;5086485;28;19924;-58
2023/02/28 00:42:29;;;;;;;;;;;;;;;-2.04;62.86;98824.94;5106730;28;20487;-58
2023/02/28 00:44:57;;;;;;;;;;;;;;;-2.03;62.71;98825.75;5111004;28;19931;-58
2023/02/28 00:47:25;;;;;;;;;;;;;;;-2.05;63.15;98820.66;5103965;28;19924;-57
2023/02/28 00:49:53;;;;;;;;;;;;;;;-1.95;62.52;98818.38;5095552;28;20383;-57
2023/02/28 00:52:22;;;;;;;;;;;;;;;-2.03;62.68;98823.09;5079264;28;20132;-58
2023/02/28 00:54:51;;;;;;;;;;;;;;;-1.97;62.65;98822.25;5086577;28;19931;-57
2023/02/28 00:57:19;;;;;;;;;;;;;;;-1.94;62.65;98817.34;5078894;28;19924;-57
2023/02/28 00:59:49;;;;;;;;;;;;;;;-1.97;62.87;98822.25;5104965;28;19985;-57
2023/02/28 01:02:17;;;;;;;;;;;;;;;-1.91;62.41;98816.13;5075607;28;19924;-58
2023/02/28 01:04:46;;;;;;;;;;;;;;;-1.97;62.72;98812.44;5105796;28;19940;-57
2023/02/28 01:07:15;;;;;;;;;;;;;;;-2.04;62.79;98816.13;5093093;28;19928;-57
2023/02/28 01:09:46;;;;;;;;;;;;;;;-2.02;62.85;98806.13;5089900;28;19928;-57
2023/02/28 01:12:16;;;;;;;;;;;;;;;-2.05;63.20;98811.84;5095717;28;20020;-57
2023/02/28 01:14:47;;;;;;;;;;;;;;;-2.01;63.19;98805.91;5108525;28;20381;-57
2023/02/28 01:17:15;;;;;;;;;;;;;;;-1.95;62.82;98807.72;5104036;28;19924;-57
2023/02/28 01:19:44;;;;;;;;;;;;;;;-1.94;62.90;98812.00;5097674;28;19928;-58
2023/02/28 01:22:17;;;;;;;;;;;;;;;-1.98;62.80;98808.13;5086913;28;19935;-57
2023/02/28 01:24:46;;;;;;;;;;;;;;;-2.03;63.27;98801.78;5102432;28;19924;-57
2023/02/28 01:27:21;;;;;;;;;;;;;;;-1.90;62.78;98802.59;5086630;28;19924;-58
2023/02/28 01:29:49;;;;;;;;;;;;;;;-2.01;62.85;98805.09;5088448;28;19931;-58
2023/02/28 01:35:09;;;;;;;;;;;;;;;-2.04;63.09;98805.47;5102813;28;19923;-61
2023/02/28 01:37:38;;;;;;;;;;;;;;;-2.08;63.43;98801.59;5096595;28;19931;-60
2023/02/28 01:40:07;;;;;;;;;;;;;;;-2.04;63.44;98797.50;5080017;28;19924;-57
2023/02/28 01:42:36;;;;;;;;;;;;;;;-2.18;64.22;98800.19;5104397;28;19924;-57
2023/02/28 01:45:06;;;;;;;;;;;;;;;-2.15;63.95;98793.63;5100892;28;20269;-58
2023/02/28 01:47:35;;;;;;;;;;;;;;;-2.12;63.84;98788.72;5085543;28;19928;-57
2023/02/28 01:50:04;;;;;;;;;;;;;;;-2.15;63.67;98793.63;5085806;28;19927;-58
2023/02/28 01:52:32;;;;;;;;;;;;;;;-2.07;63.53;98792.59;5091874;28;20023;-58
2023/02/28 01:55:28;;;;;;;;;;;;;;;-2.09;63.96;98789.31;5091905;28;19924;-58
2023/02/28 01:58:01;;;;;;;;;;;;;;;-2.23;64.29;98794.69;5089738;28;20304;-58
2023/02/28 02:00:30;;;;;;;;;;;;;;;-2.21;64.13;98784.63;5088708;28;19924;-58
2023/02/28 02:02:59;;;;;;;;;;;;;;;-2.28;64.36;98791.00;5100347;28;19977;-58
2023/02/28 02:05:28;;;;;;;;;;;;;;;-2.10;63.97;98788.50;5088130;28;19928;-57
2023/02/28 02:07:56;;;;;;;;;;;;;;;-2.21;64.51;98784.63;5114232;28;20257;-60
2023/02/28 02:10:26;;;;;;;;;;;;;;;-2.22;64.76;98784.84;5086698;28;19986;-58
2023/02/28 02:12:57;;;;;;;;;;;;;;;-2.18;64.33;98788.75;5086887;28;19932;-58
2023/02/28 02:15:50;;;;;;;;;;;;;;;-2.16;64.38;98790.16;5076936;28;19946;-59
2023/02/28 02:18:23;;;;;;;;;;;;;;;-2.21;64.57;98781.97;5077795;28;19924;-58
2023/02/28 02:21:17;;;;;;;;;;;;;;;-2.32;65.06;98779.13;5099911;28;19950;-58
2023/02/28 02:23:54;;;;;;;;;;;;;;;-2.35;65.03;98777.69;5071491;28;19954;-58
2023/02/28 02:26:27;;;;;;;;;;;;;;;-2.28;64.60;98773.19;5102698;28;19985;-58
2023/02/28 02:29:03;;;;;;;;;;;;;;;-2.24;65.09;98762.91;5102778;28;19932;-58
2023/02/28 02:31:38;;;;;;;;;;;;;;;-2.30;64.88;98766.41;5089006;28;19928;-58
2023/02/28 02:34:25;;;;;;;;;;;;;;;-2.38;65.27;98773.59;5081817;28;19971;-58
2023/02/28 02:36:55;;;;;;;;;;;;;;;-2.30;65.14;98769.91;5102320;28;19928;-57
2023/02/28 02:39:25;;;;;;;;;;;;;;;-2.29;65.06;98766.22;5081415;28;20044;-59
2023/02/28 02:41:55;;;;;;;;;;;;;;;-2.31;65.35;98764.78;5090970;28;19973;-58
2023/02/28 02:44:24;;;;;;;;;;;;;;;-2.37;64.97;98763.78;5098674;28;19924;-58
2023/02/28 02:46:52;;;;;;;;;;;;;;;-2.31;65.32;98768.25;5080311;28;19932;-58
2023/02/28 02:49:21;;;;;;;;;;;;;;;-2.31;64.97;98762.94;5086056;28;19924;-58
2023/02/28 02:51:49;;;;;;;;;;;;;;;-2.27;65.30;98769.50;5085561;28;19960;-58
2023/02/28 02:54:42;;;;;;;;;;;;;;;-2.33;65.34;98766.84;5075446;28;19924;-58
2023/02/28 02:57:13;;;;;;;;;;;;;;;-2.44;65.35;98763.78;5073288;28;19924;-58
2023/02/28 02:59:41;;;;;;;;;;;;;;;-2.50;65.79;98769.13;5087294;28;19924;-58
2023/02/28 03:02:12;;;;;;;;;;;;;;;-2.43;65.49;98769.94;5076751;28;19924;-58
2023/02/28 03:04:41;;;;;;;;;;;;;;;-2.46;65.86;98771.16;5090941;28;19924;-58
2023/02/28 03:07:13;;;;;;;;;;;;;;;-2.43;65.81;98773.41;5092122;28;20296;-58
2023/02/28 03:09:50;;;;;;;;;;;;;;;-2.37;65.46;98769.09;5083023;28;19986;-58
2023/02/28 03:12:20;;;;;;;;;;;;;;;-2.45;66.00;98770.16;5079973;28;19928;-58
2023/02/28 03:14:51;;;;;;;;;;;;;;;-2.46;65.61;98771.16;5089924;28;19977;-58
2023/02/28 03:17:23;;;;;;;;;;;;;;;-2.43;65.85;98769.94;5085185;28;19932;-59
2023/02/28 03:19:56;;;;;;;;;;;;;;;-2.40;65.70;98774.81;5080212;28;20759;-58
2023/02/28 03:22:52;;;;;;;;;;;;;;;-2.37;65.70;98766.44;5086849;28;20352;-58
2023/02/28 03:25:26;;;;;;;;;;;;;;;-2.40;65.72;98770.34;5082954;28;19924;-58
2023/02/28 03:27:56;;;;;;;;;;;;;;;-2.37;65.46;98769.91;5078794;28;20484;-57
2023/02/28 03:30:25;;;;;;;;;;;;;;;-2.45;65.99;98764.81;5091127;28;19931;-58
2023/02/28 03:32:54;;;;;;;;;;;;;;;-2.44;65.90;98770.97;5088013;28;20323;-58
2023/02/28 03:35:22;;;;;;;;;;;;;;;-2.50;65.93;98774.44;5080021;28;19970;-58
2023/02/28 03:38:15;;;;;;;;;;;;;;;-2.55;66.29;98771.59;5107530;28;19928;-58
2023/02/28 03:40:44;;;;;;;;;;;;;;;-2.42;66.40;98774.22;5109127;28;19924;-58
2023/02/28 03:43:14;;;;;;;;;;;;;;;-2.41;65.89;98778.50;5100762;28;19928;-58
2023/02/28 03:45:45;;;;;;;;;;;;;;;-2.47;65.92;98779.34;5108427;28;19959;-58
2023/02/28 03:48:15;;;;;;;;;;;;;;;-2.39;66.18;98771.16;5107865;28;19928;-58
2023/02/28 03:50:43;;;;;;;;;;;;;;;-2.40;65.67;98777.47;5106786;28;20324;-58
2023/02/28 03:53:12;;;;;;;;;;;;;;;-2.38;65.88;98778.09;5105818;28;19924;-58
2023/02/28 03:55:41;;;;;;;;;;;;;;;-2.51;66.65;98784.25;5109211;28;19924;-58
2023/02/28 03:58:11;;;;;;;;;;;;;;;-2.42;65.53;98783.00;5109933;28;19938;-57
2023/02/28 04:00:46;;;;;;;;;;;;;;;-2.43;65.93;98777.91;5095699;28;20381;-58
2023/02/28 04:03:14;;;;;;;;;;;;;;;-2.42;66.30;98783.00;5108612;28;19927;-58
2023/02/28 04:05:47;;;;;;;;;;;;;;;-2.44;65.74;98781.59;5104560;28;19932;-58
2023/02/28 04:08:15;;;;;;;;;;;;;;;-2.43;65.92;98780.56;5093790;28;19924;-57
2023/02/28 04:10:43;;;;;;;;;;;;;;;-2.45;65.80;98779.94;5103536;28;19923;-58
2023/02/28 04:13:11;;;;;;;;;;;;;;;-2.37;65.84;98782.41;5107058;28;19939;-58
2023/02/28 04:15:39;;;;;;;;;;;;;;;-2.40;66.20;98786.31;5104104;28;19923;-58
2023/02/28 04:18:12;;;;;;;;;;;;;;;-2.46;66.33;98776.47;5101767;28;20330;-57
2023/02/28 04:20:41;;;;;;;;;;;;;;;-2.41;66.09;98789.16;5101553;28;19924;-58
2023/02/28 04:23:10;;;;;;;;;;;;;;;-2.39;65.92;98781.81;5079525;28;19977;-58
2023/02/28 04:25:40;;;;;;;;;;;;;;;-2.39;66.05;98781.81;5096323;28;19924;-58
2023/02/28 04:28:08;;;;;;;;;;;;;;;-2.37;65.90;98785.06;5095216;28;19947;-57
2023/02/28 04:30:36;;;;;;;;;;;;;;;-2.45;66.12;98782.59;5106999;28;19935;-58
2023/02/28 04:33:04;;;;;;;;;;;;;;;-2.40;66.20;98785.47;5099918;28;19924;-58
2023/02/28 04:35:34;;;;;;;;;;;;;;;-2.46;65.84;98773.00;5096122;28;19934;-57
2023/02/28 04:38:04;;;;;;;;;;;;;;;-2.38;65.82;98783.44;5110218;28;20291;-57
2023/02/28 04:40:32;;;;;;;;;;;;;;;-2.50;66.19;98790.41;5108805;28;19924;-58
2023/02/28 04:43:00;;;;;;;;;;;;;;;-2.51;66.46;98789.56;5100710;28;20015;-58
2023/02/28 04:45:29;;;;;;;;;;;;;;;-2.30;65.64;98782.38;5102200;28;19951;-58
2023/02/28 04:48:23;;;;;;;;;;;;;;;-2.36;65.95;98784.03;5099779;28;19934;-58
2023/02/28 04:50:52;;;;;;;;;;;;;;;-2.35;65.78;98780.34;5099193;28;20007;-58
2023/02/28 04:53:20;;;;;;;;;;;;;;;-2.26;65.94;98781.78;5109518;28;19932;-58
2023/02/28 04:55:48;;;;;;;;;;;;;;;-2.32;65.31;98779.13;5107906;28;20389;-58
2023/02/28 04:58:16;;;;;;;;;;;;;;;-2.29;65.54;98779.53;5098854;28;19924;-58
2023/02/28 05:00:45;;;;;;;;;;;;;;;-2.28;65.80;98781.16;5105959;28;20026;-58
2023/02/28 05:03:12;;;;;;;;;;;;;;;-2.40;66.07;98788.13;5099684;28;19928;-58
2023/02/28 05:05:40;;;;;;;;;;;;;;;-2.43;65.75;98785.91;5089923;28;20292;-58
2023/02/28 05:08:10;;;;;;;;;;;;;;;-2.36;66.17;98786.69;5110285;28;20257;-58
2023/02/28 05:10:38;;;;;;;;;;;;;;;-2.38;66.35;98792.22;5104161;28;19923;-58
2023/02/28 05:13:06;;;;;;;;;;;;;;;-2.33;65.78;98791.63;5110678;28;19928;-57
2023/02/28 05:15:34;;;;;;;;;;;;;;;-2.28;65.69;98789.16;5100362;28;19924;-58
2023/02/28 05:18:27;;;;;;;;;;;;;;;-2.38;66.13;98788.75;5108869;28;19928;-59
2023/02/28 05:20:58;;;;;;;;;;;;;;;-2.40;66.06;98796.09;5097931;28;20471;-58
2023/02/28 05:23:27;;;;;;;;;;;;;;;-2.52;67.02;98793.25;5111520;28;19923;-58
2023/02/28 05:25:56;;;;;;;;;;;;;;;-2.39;65.99;98792.44;5102761;28;19924;-58
2023/02/28 05:28:24;;;;;;;;;;;;;;;-2.40;66.42;98801.44;5093364;28;19934;-58
2023/02/28 05:30:54;;;;;;;;;;;;;;;-2.31;65.91;98796.72;5084581;28;19927;-58
2023/02/28 05:36:14;;;;;;;;;;;;;;;-2.45;66.49;98801.22;5108572;28;20273;-58
2023/02/28 05:38:45;;;;;;;;;;;;;;;-2.45;66.65;98799.41;5107473;28;19973;-59
2023/02/28 05:41:12;;;;;;;;;;;;;;;-2.44;66.27;98800.22;5102755;28;20348;-58
2023/02/28 05:43:40;;;;;;;;;;;;;;;-2.35;66.53;98798.97;5094235;28;19928;-58
2023/02/28 05:46:09;;;;;;;;;;;;;;;-2.46;66.39;98800.41;5095366;28;20278;-59
2023/02/28 05:48:37;;;;;;;;;;;;;;;-2.29;66.69;98802.66;5106724;28;20377;-58
2023/02/28 05:51:06;;;;;;;;;;;;;;;-2.28;65.76;98799.81;5107403;28;20432;-58
2023/02/28 05:53:33;;;;;;;;;;;;;;;-2.25;65.85;98796.72;5109184;28;19931;-57
2023/02/28 05:56:03;;;;;;;;;;;;;;;-2.19;65.56;98801.19;5098548;28;20280;-58
2023/02/28 05:58:31;;;;;;;;;;;;;;;-2.32;65.96;98795.91;5102615;28;19932;-58
2023/02/28 06:00:59;;;;;;;;;;;;;;;-2.35;66.25;98803.47;5105357;28;19939;-59
2023/02/28 06:03:27;;;;;;;;;;;;;;;-2.23;66.09;98810.66;5110668;28;20368;-58
2023/02/28 06:05:55;;;;;;;;;;;;;;;-2.32;66.14;98811.88;5105217;28;19942;-57
2023/02/28 06:08:23;;;;;;;;;;;;;;;-2.20;65.54;98812.88;5096245;28;19931;-57
2023/02/28 06:10:51;;;;;;;;;;;;;;;-2.39;66.39;98808.41;5088493;28;19934;-58
2023/02/28 06:13:45;;;;;;;;;;;;;;;-2.28;65.88;98815.78;5108855;28;19931;-58
2023/02/28 06:16:14;;;;;;;;;;;;;;;-2.25;65.47;98814.53;5106837;28;19924;-58
2023/02/28 06:19:06;;;;;;;;;;;;;;;-2.25;65.74;98820.66;5101611;28;19927;-58
2023/02/28 06:21:36;;;;;;;;;;;;;;;-2.35;65.85;98817.59;5098348;28;19931;-59
2023/02/28 06:24:04;;;;;;;;;;;;;;;-2.22;65.34;98820.25;5091096;28;19924;-58
2023/02/28 06:26:33;;;;;;;;;;;;;;;-2.17;65.40;98823.13;5104248;28;19924;-58
2023/02/28 06:29:01;;;;;;;;;;;;;;;-2.21;65.36;98816.56;5107106;28;19928;-58
2023/02/28 06:31:31;;;;;;;;;;;;;;;-2.15;65.02;98828.22;5111308;28;19924;-58
2023/02/28 06:33:59;;;;;;;;;;;;;;;-2.21;65.07;98821.91;5081401;28;19924;-58
2023/02/28 06:36:27;;;;;;;;;;;;;;;-2.05;64.81;98827.81;5089051;28;19923;-58
2023/02/28 06:38:55;;;;;;;;;;;;;;;-2.21;65.26;98827.22;5087934;28;19928;-57
2023/02/28 06:41:26;;;;;;;;;;;;;;;-2.10;65.05;98833.75;5114198;28;20019;-58
2023/02/28 06:43:55;;;;;;;;;;;;;;;-2.14;65.41;98830.69;5109499;28;19928;-58
2023/02/28 06:46:23;;;;;;;;;;;;;;;-2.00;64.77;98833.34;5097257;28;19931;-58
2023/02/28 06:51:45;;;;;;;;;;;;;;;-2.01;64.58;98837.03;5101635;28;19924;-53
2023/02/28 06:54:14;;;;;;;;;;;;;;;-2.03;64.65;98829.22;5111676;28;19924;-53
2023/02/28 06:56:42;;;;;;;;;;;;;;;-1.81;64.33;98831.66;5101475;28;20311;-54
2023/02/28 06:59:12;;;;;;;;;;;;;;;-1.85;64.29;98833.94;5099482;28;19943;-53
2023/02/28 07:01:42;;;;;;;;;;;;;;;-1.64;63.24;98838.19;5102982;28;19970;-55
2023/02/28 07:04:12;;;;;;;;;;;;;;;-1.65;63.20;98848.03;5106663;28;20000;-54
2023/02/28 07:06:40;;;;;;;;;;;;;;;-1.79;63.90;98840.25;5113286;28;19924;-53
2023/02/28 07:09:09;;;;;;;;;;;;;;;-1.64;63.24;98838.19;5107123;28;19935;-55
2023/02/28 07:11:40;;;;;;;;;;;;;;;-1.56;63.03;98842.44;5103093;28;19924;-54
2023/02/28 07:14:08;;;;;;;;;;;;;;;-1.41;62.58;98843.81;5114227;28;20288;-54
2023/02/28 07:16:37;;;;;;;;;;;;;;;-1.65;63.10;98855.16;5104351;28;19927;-53
2023/02/28 07:19:05;;;;;;;;;;;;;;;-1.52;63.16;98849.00;5100943;28;19935;-53
2023/02/28 07:21:34;;;;;;;;;;;;;;;-1.38;62.20;98848.75;5096446;28;19978;-53
2023/02/28 07:24:03;;;;;;;;;;;;;;;-1.46;62.59;98840.97;5106433;28;19928;-54
2023/02/28 07:26:33;;;;;;;;;;;;;;;-1.16;61.44;98841.25;5101185;28;19977;-53
2023/02/28 07:29:02;;;;;;;;;;;;;;;-1.14;61.36;98847.19;5102881;28;19931;-53
2023/02/28 07:31:30;;;;;;;;;;;;;;;-1.20;61.62;98858.72;5097067;28;20014;-53
2023/02/28 07:34:00;;;;;;;;;;;;;;;-1.07;61.19;98855.16;5095090;28;20241;-54
2023/02/28 07:36:29;;;;;;;;;;;;;;;-0.95;61.00;98849.97;5095005;28;20339;-54
2023/02/28 07:39:02;;;;;;;;;;;;;;;-0.89;60.72;98852.59;5103929;28;19942;-53
2023/02/28 07:44:26;;;;;;;;;;;;;;;-0.75;60.34;98857.84;5077644;28;20278;-53
2023/02/28 07:46:54;;;;;;;;;;;;;;;-0.76;60.29;98859.69;5092778;28;19924;-53
2023/02/28 07:49:22;;;;;;;;;;;;;;;-0.69;60.21;98857.81;5089769;28;19939;-53
2023/02/28 07:51:50;;;;;;;;;;;;;;;-0.64;60.24;98854.47;5093324;28;19924;-53
2023/02/28 07:54:20;;;;;;;;;;;;;;;-0.71;60.29;98861.72;5103566;28;19924;-53
2023/02/28 07:57:13;;;;;;;;;;;;;;;-0.47;59.58;98855.63;5099291;28;19955;-54
2023/02/28 07:59:41;;;;;;;;;;;;;;;-0.35;59.70;98858.41;5098699;28;19946;-54
2023/02/28 08:02:10;;;;;;;;;;;;;;;-0.16;59.32;98852.09;5092344;28;20350;-53
2023/02/28 08:04:39;;;;;;;;;;;;;;;-0.04;58.77;98854.84;5094783;28;20334;-53
2023/02/28 08:07:07;;;;;;;;;;;;;;;0.04;58.74;98867.09;5103996;28;19928;-54
2023/02/28 08:09:37;;;;;;;;;;;;;;;0.17;58.08;98864.31;5102667;28;19947;-53
2023/02/28 08:12:09;;;;;;;;;;;;;;;0.18;57.80;98852.59;5082137;28;19931;-53
2023/02/28 08:14:44;;;;;;;;;;;;;;;0.19;58.15;98864.91;5080842;28;20396;-54
2023/02/28 08:17:12;;;;;;;;;;;;;;;0.32;57.52;98851.41;5096539;28;19930;-59
2023/02/28 08:19:40;;;;;;;;;;;;;;;0.44;57.24;98852.31;5102300;28;19932;-53
2023/02/28 08:25:02;;;;;;;;;;;;;;;0.55;56.27;98863.28;5099568;28;19924;-53
2023/02/28 08:27:31;;;;;;;;;;;;;;;0.67;56.07;98870.34;5100687;28;20018;-53
2023/02/28 08:29:59;;;;;;;;;;;;;;;0.58;55.74;98868.19;5099352;28;19923;-53
2023/02/28 08:32:27;;;;;;;;;;;;;;;0.57;55.99;98863.88;5099515;28;19934;-53
2023/02/28 08:34:57;;;;;;;;;;;;;;;0.63;55.77;98873.69;5097067;28;19935;-53
2023/02/28 08:37:25;;;;;;;;;;;;;;;0.59;55.49;98859.16;5098987;28;19967;-53
2023/02/28 08:39:53;;;;;;;;;;;;;;;0.67;54.97;98848.94;5095899;28;19977;-53
2023/02/28 08:42:26;;;;;;;;;;;;;;;0.62;55.51;98858.69;5104699;28;19923;-53
2023/02/28 08:44:54;;;;;;;;;;;;;;;0.71;55.26;98852.00;5103441;28;19934;-53
2023/02/28 08:47:23;;;;;;;;;;;;;;;0.84;54.50;98854.50;5105411;28;20376;-55
2023/02/28 08:49:51;;;;;;;;;;;;;;;1.10;54.25;98856.00;5096155;28;19924;-54
2023/02/28 08:52:19;;;;;;;;;;;;;;;1.25;53.39;98858.28;5078032;28;19927;-53
2023/02/28 08:54:47;;;;;;;;;;;;;;;1.27;52.75;98866.88;5088562;28;19928;-53
2023/02/28 08:57:15;;;;;;;;;;;;;;;1.11;53.58;98862.19;5103040;28;19930;-54
2023/02/28 08:59:45;;;;;;;;;;;;;;;0.89;53.61;98857.31;5104651;28;19931;-54
2023/02/28 09:02:15;;;;;;;;;;;;;;;0.94;53.34;98865.47;5102222;28;19931;-54
2023/02/28 09:04:45;;;;;;;;;;;;;;;0.78;53.51;98864.22;5081729;28;19924;-53
2023/02/28 09:07:13;;;;;;;;;;;;;;;0.92;53.10;98861.41;5074426;28;19942;-53
2023/02/28 09:09:53;;;;;;;;;;;;;;;1.21;53.11;98854.41;5096484;28;19934;-53
2023/02/28 09:12:21;;;;;;;;;;;;;;;1.37;52.78;98853.78;5101258;28;19928;-54
2023/02/28 09:14:51;;;;;;;;;;;;;;;1.63;51.66;98857.91;5106480;28;19962;-54
2023/02/28 09:17:20;;;;;;;;;;;;;;;1.71;50.90;98862.13;5097548;28;19928;-54
2023/02/28 09:20:12;;;;;;;;;;;;;;;1.74;51.05;98853.63;5098827;28;19938;-54
2023/02/28 09:22:41;;;;;;;;;;;;;;;1.72;50.21;98853.06;5110963;28;20006;-53
2023/02/28 09:25:09;;;;;;;;;;;;;;;1.93;49.94;98847.13;5100296;28;20012;-54
2023/02/28 09:27:38;;;;;;;;;;;;;;;1.91;50.12;98851.88;5102688;28;19935;-54
2023/02/28 09:30:09;;;;;;;;;;;;;;;1.98;49.73;98854.47;5101177;28;20452;-53
2023/02/28 09:32:37;;;;;;;;;;;;;;;1.82;49.72;98855.97;5086984;28;19935;-53
2023/02/28 09:35:06;;;;;;;;;;;;;;;1.71;50.29;98854.09;5104416;28;19931;-54
2023/02/28 09:37:34;;;;;;;;;;;;;;;1.96;49.50;98857.38;5088643;28;19970;-54
2023/02/28 09:40:03;;;;;;;;;;;;;;;2.04;49.49;98857.03;5098886;28;19924;-54
2023/02/28 09:42:32;;;;;;;;;;;;;;;2.22;49.44;98850.72;5095133;28;19924;-53
2023/02/28 09:45:00;;;;;;;;;;;;;;;2.23;48.75;98859.59;5099052;28;19928;-54
2023/02/28 09:47:30;;;;;;;;;;;;;;;2.17;48.49;98857.84;5103918;28;19928;-54
2023/02/28 09:49:59;;;;;;;;;;;;;;;1.84;49.50;98856.56;5094118;28;19928;-54
2023/02/28 09:52:28;;;;;;;;;;;;;;;1.70;49.19;98868.50;5091919;28;19932;-54
2023/02/28 09:54:56;;;;;;;;;;;;;;;1.78;49.46;98868.19;5096294;28;20277;-54
2023/02/28 09:57:28;;;;;;;;;;;;;;;1.87;49.19;98856.09;5097677;28;19924;-54
2023/02/28 09:59:59;;;;;;;;;;;;;;;2.25;48.29;98863.69;5099101;28;19924;-54
2023/02/28 10:02:38;;;;;;;;;;;;;;;2.59;47.97;98855.81;5103036;28;19924;-55
2023/02/28 10:05:08;;;;;;;;;;;;;;;2.90;46.82;98851.91;5104099;28;20373;-54
2023/02/28 10:07:39;;;;;;;;;;;;;;;2.89;45.88;98848.41;5103382;28;19928;-54
2023/02/28 10:10:08;;;;;;;;;;;;;;;3.14;45.29;98855.28;5091847;28;19955;-54
2023/02/28 10:12:36;;;;;;;;;;;;;;;3.14;45.54;98848.09;5106374;28;19951;-55
2023/02/28 10:15:05;;;;;;;;;;;;;;;3.34;44.93;98844.94;5112432;28;19969;-58
2023/02/28 10:17:36;;;;;;;;;;;;;;;3.62;44.42;98852.16;5105883;28;19974;-54
2023/02/28 10:20:42;;;;;;;;;;;;;;;3.48;44.39;98856.19;5104771;28;19938;-54
2023/02/28 10:23:15;;;;;;;;;;;;;;;3.56;44.08;98849.59;5110246;28;20359;-58
2023/02/28 10:25:47;;;;;;;;;;;;;;;3.60;44.15;98850.75;5102694;28;19931;-54
2023/02/28 10:28:17;;;;;;;;;;;;;;;3.74;42.85;98854.75;5102536;28;19924;-54
2023/02/28 10:33:39;;;;;;;;;;;;;;;3.47;43.77;98849.22;5103047;28;19969;-53
2023/02/28 10:36:11;;;;;;;;;;;;;;;3.20;43.88;98846.31;5109376;28;20304;-59
2023/02/28 10:38:40;;;;;;;;;;;;;;;3.45;44.37;98835.19;5108740;28;19931;-54
2023/02/28 10:41:10;;;;;;;;;;;;;;;3.68;43.49;98839.63;5110281;28;19993;-54
2023/02/28 10:43:39;;;;;;;;;;;;;;;3.90;43.78;98834.31;5080972;28;20342;-54
2023/02/28 10:46:12;;;;;;;;;;;;;;;3.74;42.62;98838.63;5103907;28;19947;-54
2023/02/28 10:48:42;;;;;;;;;;;;;;;3.66;42.72;98837.16;5108502;28;20391;-54
2023/02/28 10:51:12;;;;;;;;;;;;;;;3.60;43.21;98832.75;5102007;28;19997;-53
2023/02/28 10:56:40;;;;;;;;;;;;;;;3.78;43.43;98837.09;5106729;28;19931;-55
2023/02/28 10:59:22;;;;;;;;;;;;;;;3.97;42.50;98829.59;5107988;28;19992;-54
2023/02/28 11:01:53;;;;;;;;;;;;;;;4.08;42.05;98828.69;5091114;28;19924;-54
2023/02/28 11:04:35;;;;;;;;;;;;;;;4.14;41.57;98838.44;5104384;28;19927;-54
2023/02/28 11:07:05;;;;;;;;;;;;;;;4.25;41.42;98834.03;5106494;28;19924;-54
2023/02/28 11:09:35;;;;;;;;;;;;;;;4.34;41.91;98845.19;5088817;28;19974;-54
2023/02/28 11:14:58;;;;;;;;;;;;;;;4.41;41.50;98835.03;5103708;28;19934;-54
2023/02/28 11:17:27;;;;;;;;;;;;;;;4.21;41.27;98840.97;5106342;28;19941;-54
2023/02/28 11:20:02;;;;;;;;;;;;;;;3.98;42.07;98836.59;5109375;28;19934;-54
2023/02/28 11:22:35;;;;;;;;;;;;;;;4.03;42.15;98842.03;5109949;28;19983;-54
2023/02/28 11:25:04;;;;;;;;;;;;;;;4.25;41.25;98838.59;5111278;28;19951;-54
2023/02/28 11:27:42;;;;;;;;;;;;;;;4.29;42.17;98839.72;5105386;28;19945;-54
2023/02/28 11:30:23;;;;;;;;;;;;;;;4.45;40.85;98834.31;5112911;28;20355;-54
2023/02/28 11:32:52;;;;;;;;;;;;;;;4.47;41.49;98845.66;5102271;28;20004;-55
2023/02/28 11:35:22;;;;;;;;;;;;;;;4.53;40.90;98835.78;5106329;28;20272;-54
2023/02/28 11:38:17;;;;;;;;;;;;;;;4.69;40.63;98837.59;5112774;28;19935;-54
2023/02/28 11:40:49;;;;;;;;;;;;;;;4.67;40.63;98833.50;5112846;28;19934;-54
2023/02/28 11:43:20;;;;;;;;;;;;;;;4.80;41.17;98832.34;5091567;28;19982;-54
2023/02/28 11:45:53;;;;;;;;;;;;;;;4.95;40.04;98827.94;5105715;28;19938;-54
2023/02/28 11:48:23;;;;;;;;;;;;;;;4.68;40.21;98833.25;5103659;28;19944;-54
2023/02/28 11:50:54;;;;;;;;;;;;;;;4.50;41.02;98825.50;5097683;28;19942;-54
2023/02/28 11:53:25;;;;;;;;;;;;;;;4.61;40.80;98821.88;5103316;28;20340;-54
2023/02/28 11:55:56;;;;;;;;;;;;;;;4.91;40.00;98826.00;5108866;28;19934;-54
2023/02/28 11:58:33;;;;;;;;;;;;;;;4.91;40.28;98824.13;5109466;28;19935;-55
2023/02/28 12:01:04;;;;;;;;;;;;;;;4.92;40.43;98822.25;5109819;28;20017;-54
2023/02/28 12:03:34;;;;;;;;;;;;;;;5.03;40.56;98818.59;5102562;28;19927;-54
2023/02/28 12:06:06;;;;;;;;;;;;;;;5.09;39.39;98814.88;5090517;28;19938;-54
2023/02/28 12:08:42;;;;;;;;;;;;;;;4.90;40.69;98817.13;5104650;28;19934;-54
2023/02/28 12:11:12;;;;;;;;;;;;;;;5.07;39.47;98819.72;5086801;28;19968;-55
2023/02/28 12:13:46;;;;;;;;;;;;;;;5.35;40.36;98817.84;5090241;28;19973;-56
2023/02/28 12:16:35;;;;;;;;;;;;;;;5.09;39.56;98814.88;5112445;28;20378;-55
2023/02/28 12:19:13;;;;;;;;;;;;;;;5.29;39.80;98813.47;5105439;28;20003;-55
2023/02/28 12:21:45;;;;;;;;;;;;;;;5.11;39.72;98810.03;5105321;28;19941;-55
2023/02/28 12:24:25;;;;;;;;;;;;;;;5.29;39.68;98800.00;5102318;28;19924;-55
2023/02/28 12:26:53;;;;;;;;;;;;;;;5.58;38.79;98801.31;5079876;28;19928;-54
2023/02/28 12:29:23;;;;;;;;;;;;;;;5.55;39.60;98807.25;5113032;28;20394;-54
2023/02/28 12:31:53;;;;;;;;;;;;;;;5.18;39.24;98810.66;5094751;28;19936;-54
2023/02/28 12:34:22;;;;;;;;;;;;;;;5.20;39.96;98819.31;5089869;28;19935;-54
2023/02/28 12:36:51;;;;;;;;;;;;;;;4.94;40.06;98809.31;5101555;28;19958;-54
2023/02/28 12:39:20;;;;;;;;;;;;;;;4.96;39.90;98794.56;5102549;28;19950;-54
2023/02/28 12:41:52;;;;;;;;;;;;;;;4.81;39.91;98798.97;5098604;28;19970;-53
2023/02/28 12:44:27;;;;;;;;;;;;;;;5.07;39.52;98790.09;5099666;28;19952;-54
2023/02/28 12:46:55;;;;;;;;;;;;;;;5.23;39.79;98797.25;5107490;28;19938;-54
2023/02/28 12:49:25;;;;;;;;;;;;;;;5.05;40.14;98789.50;5079190;28;19935;-54
2023/02/28 12:51:53;;;;;;;;;;;;;;;5.12;39.65;98789.34;5095073;28;20021;-54
2023/02/28 12:54:23;;;;;;;;;;;;;;;5.16;40.13;98791.25;5089699;28;19938;-60
2023/02/28 12:59:47;;;;;;;;;;;;;;;5.18;39.67;98794.50;5107874;28;19941;-54
2023/02/28 13:02:22;;;;;;;;;;;;;;;5.32;39.82;98799.47;5088375;28;19939;-54
2023/02/28 13:04:59;;;;;;;;;;;;;;;5.57;38.76;98788.91;5094486;28;20019;-54
2023/02/28 13:07:37;;;;;;;;;;;;;;;5.33;39.01;98788.47;5104592;28;19940;-54
2023/02/28 13:10:07;;;;;;;;;;;;;;;5.49;39.01;98790.22;5098567;28;19938;-54
2023/02/28 13:12:36;;;;;;;;;;;;;;;5.22;40.11;98786.75;5105304;28;19938;-55
2023/02/28 13:15:12;;;;;;;;;;;;;;;5.23;39.81;98789.16;5110494;28;19923;-54
2023/02/28 13:17:42;;;;;;;;;;;;;;;5.26;39.96;98785.94;5101180;28;20452;-54
2023/02/28 13:20:16;;;;;;;;;;;;;;;5.39;39.56;98778.53;5107317;28;19938;-54
2023/02/28 13:22:45;;;;;;;;;;;;;;;5.68;39.57;98782.53;5101375;28;20307;-54
2023/02/28 13:25:46;;;;;;;;;;;;;;;5.84;39.55;98796.13;5105936;28;19946;-54
2023/02/28 13:28:36;;;;;;;;;;;;;;;5.44;38.97;98786.66;5104290;28;19944;-54
2023/02/28 13:31:05;;;;;;;;;;;;;;;5.59;39.73;98786.78;5093116;28;19972;-54
2023/02/28 13:33:34;;;;;;;;;;;;;;;5.52;40.18;98795.06;5105329;28;19991;-55
2023/02/28 13:36:23;;;;;;;;;;;;;;;5.57;40.17;98793.50;5093852;28;20003;-55